sensor_id;sensor_type;location;lat;lon;timestamp;P1;durP1;ratioP1;P2;durP2;ratioP2
54454;SDS011;40364;52.270;10.546;2022-11-21T00:00:59;16.35;;;7.57;;
54454;SDS011;40364;52.270;10.546;2022-11-21T00:03:26;14.82;;;7.82;;
54454;SDS011;40364;52.270;10.546;2022-11-21T00:05:53;15.50;;;7.18;;
54454;SDS011;40364;52.270;10.546;2022-11-21T00:08:20;17.33;;;7.70;;
54454;SDS011;40364;52.270;10.546;2022-11-21T00:10:47;14.23;;;6.70;;
54454;SDS011;40364;52.270;10.546;2022-11-21T00:13:16;17.08;;;8.60;;
54454;SDS011;40364;52.270;10.546;2022-11-21T00:15:44;14.85;;;8.30;;
54454;SDS011;40364;52.270;10.546;2022-11-21T00:18:11;16.63;;;7.93;;
54454;SDS011;40364;52.270;10.546;2022-11-21T00:20:38;17.17;;;8.02;;
54454;SDS011;40364;52.270;10.546;2022-11-21T00:23:05;15.77;;;7.32;;
54454;SDS011;40364;52.270;10.546;2022-11-21T00:25:33;13.73;;;7.35;;
54454;SDS011;40364;52.270;10.546;2022-11-21T00:28:00;15.05;;;7.07;;
54454;SDS011;40364;52.270;10.546;2022-11-21T00:30:28;14.57;;;7.55;;
54454;SDS011;40364;52.270;10.546;2022-11-21T00:32:56;17.10;;;8.27;;
54454;SDS011;40364;52.270;10.546;2022-11-21T00:35:23;13.30;;;7.65;;
54454;SDS011;40364;52.270;10.546;2022-11-21T00:37:50;18.35;;;8.10;;
54454;SDS011;40364;52.270;10.546;2022-11-21T00:40:16;16.50;;;8.27;;
54454;SDS011;40364;52.270;10.546;2022-11-21T00:42:43;14.88;;;7.90;;
54454;SDS011;40364;52.270;10.546;2022-11-21T00:45:10;14.32;;;7.68;;
54454;SDS011;40364;52.270;10.546;2022-11-21T00:47:38;19.63;;;8.48;;
54454;SDS011;40364;52.270;10.546;2022-11-21T00:50:05;16.10;;;7.95;;
54454;SDS011;40364;52.270;10.546;2022-11-21T00:52:33;16.98;;;8.27;;
54454;SDS011;40364;52.270;10.546;2022-11-21T00:55:00;17.88;;;8.80;;
54454;SDS011;40364;52.270;10.546;2022-11-21T00:57:27;15.88;;;8.00;;
54454;SDS011;40364;52.270;10.546;2022-11-21T00:59:53;16.65;;;8.35;;
54454;SDS011;40364;52.270;10.546;2022-11-21T01:02:20;15.50;;;7.88;;
54454;SDS011;40364;52.270;10.546;2022-11-21T01:04:48;22.08;;;8.57;;
54454;SDS011;40364;52.270;10.546;2022-11-21T01:07:15;17.80;;;8.57;;
54454;SDS011;40364;52.270;10.546;2022-11-21T01:09:41;18.45;;;8.05;;
54454;SDS011;40364;52.270;10.546;2022-11-21T01:12:08;16.20;;;8.57;;
54454;SDS011;40364;52.270;10.546;2022-11-21T01:14:35;16.02;;;8.15;;
54454;SDS011;40364;52.270;10.546;2022-11-21T01:17:01;16.55;;;8.52;;
54454;SDS011;40364;52.270;10.546;2022-11-21T01:19:29;19.00;;;8.10;;
54454;SDS011;40364;52.270;10.546;2022-11-21T01:21:57;16.20;;;8.02;;
54454;SDS011;40364;52.270;10.546;2022-11-21T01:24:23;18.70;;;8.02;;
54454;SDS011;40364;52.270;10.546;2022-11-21T01:26:50;18.45;;;8.48;;
54454;SDS011;40364;52.270;10.546;2022-11-21T01:29:18;18.85;;;8.48;;
54454;SDS011;40364;52.270;10.546;2022-11-21T01:31:45;15.55;;;8.25;;
54454;SDS011;40364;52.270;10.546;2022-11-21T01:34:12;17.70;;;8.32;;
54454;SDS011;40364;52.270;10.546;2022-11-21T01:36:39;15.35;;;7.93;;
54454;SDS011;40364;52.270;10.546;2022-11-21T01:39:07;18.48;;;8.07;;
54454;SDS011;40364;52.270;10.546;2022-11-21T01:41:34;15.80;;;8.05;;
54454;SDS011;40364;52.270;10.546;2022-11-21T01:44:04;19.10;;;8.93;;
54454;SDS011;40364;52.270;10.546;2022-11-21T01:46:36;17.52;;;8.02;;
54454;SDS011;40364;52.270;10.546;2022-11-21T01:49:03;14.70;;;7.63;;
54454;SDS011;40364;52.270;10.546;2022-11-21T01:51:35;13.75;;;7.10;;
54454;SDS011;40364;52.270;10.546;2022-11-21T01:54:08;15.25;;;6.50;;
54454;SDS011;40364;52.270;10.546;2022-11-21T01:56:39;15.75;;;7.78;;
54454;SDS011;40364;52.270;10.546;2022-11-21T01:59:11;16.25;;;7.93;;
54454;SDS011;40364;52.270;10.546;2022-11-21T02:01:43;12.60;;;7.05;;
54454;SDS011;40364;52.270;10.546;2022-11-21T02:04:11;15.52;;;7.60;;
54454;SDS011;40364;52.270;10.546;2022-11-21T02:06:37;14.50;;;7.70;;
54454;SDS011;40364;52.270;10.546;2022-11-21T02:09:04;18.13;;;8.40;;
54454;SDS011;40364;52.270;10.546;2022-11-21T02:11:34;16.08;;;8.77;;
54454;SDS011;40364;52.270;10.546;2022-11-21T02:14:04;15.95;;;8.25;;
54454;SDS011;40364;52.270;10.546;2022-11-21T02:16:32;16.77;;;8.63;;
54454;SDS011;40364;52.270;10.546;2022-11-21T02:18:58;17.30;;;8.27;;
54454;SDS011;40364;52.270;10.546;2022-11-21T02:21:29;17.35;;;8.20;;
54454;SDS011;40364;52.270;10.546;2022-11-21T02:24:03;16.38;;;8.23;;
54454;SDS011;40364;52.270;10.546;2022-11-21T02:26:41;19.55;;;8.88;;
54454;SDS011;40364;52.270;10.546;2022-11-21T02:29:07;17.23;;;8.50;;
54454;SDS011;40364;52.270;10.546;2022-11-21T02:31:35;17.52;;;9.02;;
54454;SDS011;40364;52.270;10.546;2022-11-21T02:34:01;18.10;;;8.98;;
54454;SDS011;40364;52.270;10.546;2022-11-21T02:36:36;20.77;;;9.75;;
54454;SDS011;40364;52.270;10.546;2022-11-21T02:39:07;19.00;;;9.02;;
54454;SDS011;40364;52.270;10.546;2022-11-21T02:41:38;15.32;;;8.55;;
54454;SDS011;40364;52.270;10.546;2022-11-21T02:44:14;18.23;;;8.15;;
54454;SDS011;40364;52.270;10.546;2022-11-21T02:46:48;17.45;;;8.57;;
54454;SDS011;40364;52.270;10.546;2022-11-21T02:49:18;14.45;;;8.10;;
54454;SDS011;40364;52.270;10.546;2022-11-21T02:51:51;16.33;;;7.65;;
54454;SDS011;40364;52.270;10.546;2022-11-21T02:54:17;17.08;;;8.57;;
54454;SDS011;40364;52.270;10.546;2022-11-21T02:56:45;18.20;;;8.93;;
54454;SDS011;40364;52.270;10.546;2022-11-21T02:59:12;17.42;;;8.30;;
54454;SDS011;40364;52.270;10.546;2022-11-21T03:01:38;19.90;;;8.85;;
54454;SDS011;40364;52.270;10.546;2022-11-21T03:04:05;18.83;;;8.57;;
54454;SDS011;40364;52.270;10.546;2022-11-21T03:06:32;19.88;;;9.07;;
54454;SDS011;40364;52.270;10.546;2022-11-21T03:08:58;17.88;;;8.70;;
54454;SDS011;40364;52.270;10.546;2022-11-21T03:11:25;22.98;;;9.35;;
54454;SDS011;40364;52.270;10.546;2022-11-21T03:13:53;17.58;;;8.90;;
54454;SDS011;40364;52.270;10.546;2022-11-21T03:16:20;22.52;;;8.15;;
54454;SDS011;40364;52.270;10.546;2022-11-21T03:18:46;21.88;;;9.32;;
54454;SDS011;40364;52.270;10.546;2022-11-21T03:21:13;17.73;;;8.52;;
54454;SDS011;40364;52.270;10.546;2022-11-21T03:23:40;18.63;;;8.73;;
54454;SDS011;40364;52.270;10.546;2022-11-21T03:26:07;19.52;;;8.20;;
54454;SDS011;40364;52.270;10.546;2022-11-21T03:28:34;15.05;;;7.93;;
54454;SDS011;40364;52.270;10.546;2022-11-21T03:31:01;17.10;;;7.80;;
54454;SDS011;40364;52.270;10.546;2022-11-21T03:33:28;17.20;;;8.40;;
54454;SDS011;40364;52.270;10.546;2022-11-21T03:35:55;19.48;;;8.60;;
54454;SDS011;40364;52.270;10.546;2022-11-21T03:38:21;16.83;;;8.43;;
54454;SDS011;40364;52.270;10.546;2022-11-21T03:40:48;17.00;;;8.55;;
54454;SDS011;40364;52.270;10.546;2022-11-21T03:43:15;17.88;;;8.52;;
54454;SDS011;40364;52.270;10.546;2022-11-21T03:45:44;19.13;;;7.95;;
54454;SDS011;40364;52.270;10.546;2022-11-21T03:48:12;19.38;;;9.07;;
54454;SDS011;40364;52.270;10.546;2022-11-21T03:50:40;17.45;;;9.20;;
54454;SDS011;40364;52.270;10.546;2022-11-21T03:53:08;18.60;;;8.35;;
54454;SDS011;40364;52.270;10.546;2022-11-21T03:55:34;20.75;;;9.55;;
54454;SDS011;40364;52.270;10.546;2022-11-21T03:58:01;20.25;;;9.75;;
54454;SDS011;40364;52.270;10.546;2022-11-21T04:00:28;19.52;;;8.98;;
54454;SDS011;40364;52.270;10.546;2022-11-21T04:02:54;22.52;;;9.60;;
54454;SDS011;40364;52.270;10.546;2022-11-21T04:05:22;18.42;;;9.52;;
54454;SDS011;40364;52.270;10.546;2022-11-21T04:07:49;19.13;;;9.50;;
54454;SDS011;40364;52.270;10.546;2022-11-21T04:10:16;21.75;;;9.90;;
54454;SDS011;40364;52.270;10.546;2022-11-21T04:12:44;20.08;;;9.95;;
54454;SDS011;40364;52.270;10.546;2022-11-21T04:15:11;21.25;;;10.13;;
54454;SDS011;40364;52.270;10.546;2022-11-21T04:17:38;22.48;;;9.82;;
54454;SDS011;40364;52.270;10.546;2022-11-21T04:20:05;22.35;;;10.65;;
54454;SDS011;40364;52.270;10.546;2022-11-21T04:22:34;18.92;;;9.20;;
54454;SDS011;40364;52.270;10.546;2022-11-21T04:25:00;19.77;;;9.07;;
54454;SDS011;40364;52.270;10.546;2022-11-21T04:27:27;22.55;;;11.20;;
54454;SDS011;40364;52.270;10.546;2022-11-21T04:29:54;19.63;;;9.65;;
54454;SDS011;40364;52.270;10.546;2022-11-21T04:32:20;19.45;;;9.50;;
54454;SDS011;40364;52.270;10.546;2022-11-21T04:34:47;18.52;;;9.07;;
54454;SDS011;40364;52.270;10.546;2022-11-21T04:37:14;23.02;;;9.88;;
54454;SDS011;40364;52.270;10.546;2022-11-21T04:39:42;18.95;;;9.60;;
54454;SDS011;40364;52.270;10.546;2022-11-21T04:42:08;18.55;;;9.50;;
54454;SDS011;40364;52.270;10.546;2022-11-21T04:44:35;18.88;;;10.20;;
54454;SDS011;40364;52.270;10.546;2022-11-21T04:47:02;27.02;;;11.98;;
54454;SDS011;40364;52.270;10.546;2022-11-21T04:49:28;18.35;;;9.27;;
54454;SDS011;40364;52.270;10.546;2022-11-21T04:51:55;21.27;;;10.43;;
54454;SDS011;40364;52.270;10.546;2022-11-21T04:54:22;22.13;;;11.23;;
54454;SDS011;40364;52.270;10.546;2022-11-21T04:56:50;20.83;;;10.07;;
54454;SDS011;40364;52.270;10.546;2022-11-21T04:59:16;22.10;;;10.50;;
54454;SDS011;40364;52.270;10.546;2022-11-21T05:01:43;22.05;;;10.98;;
54454;SDS011;40364;52.270;10.546;2022-11-21T05:04:10;24.27;;;10.80;;
54454;SDS011;40364;52.270;10.546;2022-11-21T05:06:37;23.63;;;11.57;;
54454;SDS011;40364;52.270;10.546;2022-11-21T05:09:03;21.83;;;10.82;;
54454;SDS011;40364;52.270;10.546;2022-11-21T05:11:30;27.30;;;11.38;;
54454;SDS011;40364;52.270;10.546;2022-11-21T05:14:15;22.42;;;10.80;;
54454;SDS011;40364;52.270;10.546;2022-11-21T05:16:42;22.67;;;10.55;;
54454;SDS011;40364;52.270;10.546;2022-11-21T05:19:09;22.52;;;10.80;;
54454;SDS011;40364;52.270;10.546;2022-11-21T05:21:35;22.35;;;10.50;;
54454;SDS011;40364;52.270;10.546;2022-11-21T05:24:02;28.70;;;12.27;;
54454;SDS011;40364;52.270;10.546;2022-11-21T05:26:29;23.90;;;11.23;;
54454;SDS011;40364;52.270;10.546;2022-11-21T05:28:56;25.40;;;12.40;;
54454;SDS011;40364;52.270;10.546;2022-11-21T05:31:24;27.70;;;11.70;;
54454;SDS011;40364;52.270;10.546;2022-11-21T05:33:50;24.40;;;11.25;;
54454;SDS011;40364;52.270;10.546;2022-11-21T05:36:17;25.20;;;11.57;;
54454;SDS011;40364;52.270;10.546;2022-11-21T05:38:44;23.17;;;10.65;;
54454;SDS011;40364;52.270;10.546;2022-11-21T05:41:10;23.73;;;11.40;;
54454;SDS011;40364;52.270;10.546;2022-11-21T05:43:37;28.15;;;12.30;;
54454;SDS011;40364;52.270;10.546;2022-11-21T05:46:14;26.63;;;12.40;;
54454;SDS011;40364;52.270;10.546;2022-11-21T05:48:44;28.60;;;13.60;;
54454;SDS011;40364;52.270;10.546;2022-11-21T05:51:12;24.20;;;11.63;;
54454;SDS011;40364;52.270;10.546;2022-11-21T05:53:39;27.90;;;13.48;;
54454;SDS011;40364;52.270;10.546;2022-11-21T05:56:06;24.58;;;12.27;;
54454;SDS011;40364;52.270;10.546;2022-11-21T05:58:34;29.33;;;12.20;;
54454;SDS011;40364;52.270;10.546;2022-11-21T06:01:01;30.13;;;12.13;;
54454;SDS011;40364;52.270;10.546;2022-11-21T06:03:30;28.35;;;13.45;;
54454;SDS011;40364;52.270;10.546;2022-11-21T06:06:07;27.27;;;12.70;;
54454;SDS011;40364;52.270;10.546;2022-11-21T06:08:36;27.15;;;12.95;;
54454;SDS011;40364;52.270;10.546;2022-11-21T06:11:04;28.65;;;12.48;;
54454;SDS011;40364;52.270;10.546;2022-11-21T06:13:32;25.20;;;12.10;;
54454;SDS011;40364;52.270;10.546;2022-11-21T06:15:59;27.50;;;12.50;;
54454;SDS011;40364;52.270;10.546;2022-11-21T06:18:29;27.75;;;12.32;;
54454;SDS011;40364;52.270;10.546;2022-11-21T06:20:59;31.80;;;12.27;;
54454;SDS011;40364;52.270;10.546;2022-11-21T06:23:28;29.27;;;12.43;;
54454;SDS011;40364;52.270;10.546;2022-11-21T06:25:55;31.30;;;14.45;;
54454;SDS011;40364;52.270;10.546;2022-11-21T06:28:23;31.05;;;13.15;;
54454;SDS011;40364;52.270;10.546;2022-11-21T06:30:50;33.03;;;13.35;;
54454;SDS011;40364;52.270;10.546;2022-11-21T06:33:17;30.77;;;12.75;;
54454;SDS011;40364;52.270;10.546;2022-11-21T06:35:44;27.40;;;13.27;;
54454;SDS011;40364;52.270;10.546;2022-11-21T06:38:11;35.83;;;14.75;;
54454;SDS011;40364;52.270;10.546;2022-11-21T06:40:39;37.95;;;14.23;;
54454;SDS011;40364;52.270;10.546;2022-11-21T06:43:06;31.60;;;14.05;;
54454;SDS011;40364;52.270;10.546;2022-11-21T06:45:33;30.67;;;13.48;;
54454;SDS011;40364;52.270;10.546;2022-11-21T06:48:00;29.58;;;13.00;;
54454;SDS011;40364;52.270;10.546;2022-11-21T06:50:27;31.30;;;13.57;;
54454;SDS011;40364;52.270;10.546;2022-11-21T06:52:55;28.52;;;14.45;;
54454;SDS011;40364;52.270;10.546;2022-11-21T06:55:22;30.42;;;14.00;;
54454;SDS011;40364;52.270;10.546;2022-11-21T06:57:51;31.80;;;14.15;;
54454;SDS011;40364;52.270;10.546;2022-11-21T07:00:18;33.88;;;14.07;;
54454;SDS011;40364;52.270;10.546;2022-11-21T07:02:45;34.85;;;14.63;;
54454;SDS011;40364;52.270;10.546;2022-11-21T07:05:12;32.38;;;13.27;;
54454;SDS011;40364;52.270;10.546;2022-11-21T07:07:38;24.95;;;12.45;;
54454;SDS011;40364;52.270;10.546;2022-11-21T07:10:05;33.38;;;13.73;;
54454;SDS011;40364;52.270;10.546;2022-11-21T07:12:33;27.77;;;12.82;;
54454;SDS011;40364;52.270;10.546;2022-11-21T07:15:18;30.05;;;13.18;;
54454;SDS011;40364;52.270;10.546;2022-11-21T07:17:45;28.25;;;13.57;;
54454;SDS011;40364;52.270;10.546;2022-11-21T07:20:12;28.52;;;14.88;;
54454;SDS011;40364;52.270;10.546;2022-11-21T07:22:38;30.45;;;12.80;;
54454;SDS011;40364;52.270;10.546;2022-11-21T07:25:05;31.73;;;13.13;;
54454;SDS011;40364;52.270;10.546;2022-11-21T07:27:32;28.20;;;12.30;;
54454;SDS011;40364;52.270;10.546;2022-11-21T07:29:59;29.35;;;12.63;;
54454;SDS011;40364;52.270;10.546;2022-11-21T07:32:27;30.83;;;14.10;;
54454;SDS011;40364;52.270;10.546;2022-11-21T07:34:53;34.90;;;14.05;;
54454;SDS011;40364;52.270;10.546;2022-11-21T07:37:20;37.38;;;15.23;;
54454;SDS011;40364;52.270;10.546;2022-11-21T07:39:47;32.53;;;14.60;;
54454;SDS011;40364;52.270;10.546;2022-11-21T07:42:13;28.27;;;13.63;;
54454;SDS011;40364;52.270;10.546;2022-11-21T07:44:40;40.85;;;16.13;;
54454;SDS011;40364;52.270;10.546;2022-11-21T07:47:06;32.15;;;13.93;;
54454;SDS011;40364;52.270;10.546;2022-11-21T07:49:35;30.77;;;13.63;;
54454;SDS011;40364;52.270;10.546;2022-11-21T07:52:01;35.05;;;14.60;;
54454;SDS011;40364;52.270;10.546;2022-11-21T07:54:28;32.92;;;14.23;;
54454;SDS011;40364;52.270;10.546;2022-11-21T07:56:55;42.72;;;14.23;;
54454;SDS011;40364;52.270;10.546;2022-11-21T07:59:21;39.47;;;14.90;;
54454;SDS011;40364;52.270;10.546;2022-11-21T08:01:49;31.98;;;13.93;;
54454;SDS011;40364;52.270;10.546;2022-11-21T08:04:16;35.40;;;14.30;;
54454;SDS011;40364;52.270;10.546;2022-11-21T08:06:44;30.58;;;14.63;;
54454;SDS011;40364;52.270;10.546;2022-11-21T08:09:10;31.73;;;14.02;;
54454;SDS011;40364;52.270;10.546;2022-11-21T08:11:37;29.05;;;13.25;;
54454;SDS011;40364;52.270;10.546;2022-11-21T08:14:04;38.53;;;16.17;;
54454;SDS011;40364;52.270;10.546;2022-11-21T08:16:31;36.03;;;16.45;;
54454;SDS011;40364;52.270;10.546;2022-11-21T08:18:57;33.05;;;15.32;;
54454;SDS011;40364;52.270;10.546;2022-11-21T08:21:24;33.65;;;15.80;;
54454;SDS011;40364;52.270;10.546;2022-11-21T08:23:53;39.53;;;16.08;;
54454;SDS011;40364;52.270;10.546;2022-11-21T08:26:19;37.90;;;16.58;;
54454;SDS011;40364;52.270;10.546;2022-11-21T08:28:46;40.13;;;15.98;;
54454;SDS011;40364;52.270;10.546;2022-11-21T08:31:13;38.25;;;15.65;;
54454;SDS011;40364;52.270;10.546;2022-11-21T08:33:39;34.20;;;15.48;;
54454;SDS011;40364;52.270;10.546;2022-11-21T08:36:06;36.60;;;15.98;;
54454;SDS011;40364;52.270;10.546;2022-11-21T08:38:33;35.05;;;15.88;;
54454;SDS011;40364;52.270;10.546;2022-11-21T08:41:01;48.60;;;16.70;;
54454;SDS011;40364;52.270;10.546;2022-11-21T08:43:45;41.88;;;19.27;;
54454;SDS011;40364;52.270;10.546;2022-11-21T08:46:12;36.72;;;17.38;;
54454;SDS011;40364;52.270;10.546;2022-11-21T08:48:38;41.17;;;18.20;;
54454;SDS011;40364;52.270;10.546;2022-11-21T08:51:05;34.08;;;14.57;;
54454;SDS011;40364;52.270;10.546;2022-11-21T08:53:32;38.20;;;16.42;;
54454;SDS011;40364;52.270;10.546;2022-11-21T08:55:58;32.35;;;14.52;;
54454;SDS011;40364;52.270;10.546;2022-11-21T08:58:26;42.97;;;15.73;;
54454;SDS011;40364;52.270;10.546;2022-11-21T09:00:53;31.23;;;13.18;;
54454;SDS011;40364;52.270;10.546;2022-11-21T09:03:20;40.03;;;15.70;;
54454;SDS011;40364;52.270;10.546;2022-11-21T09:05:46;34.63;;;14.57;;
54454;SDS011;40364;52.270;10.546;2022-11-21T09:08:13;31.33;;;14.05;;
54454;SDS011;40364;52.270;10.546;2022-11-21T09:10:39;30.17;;;15.02;;
54454;SDS011;40364;52.270;10.546;2022-11-21T09:13:06;31.48;;;13.57;;
54454;SDS011;40364;52.270;10.546;2022-11-21T09:15:34;31.02;;;13.82;;
54454;SDS011;40364;52.270;10.546;2022-11-21T09:18:18;29.63;;;13.03;;
54454;SDS011;40364;52.270;10.546;2022-11-21T09:20:44;33.33;;;14.52;;
54454;SDS011;40364;52.270;10.546;2022-11-21T09:23:12;31.05;;;13.15;;
54454;SDS011;40364;52.270;10.546;2022-11-21T09:25:39;31.52;;;12.75;;
54454;SDS011;40364;52.270;10.546;2022-11-21T09:28:07;26.92;;;12.15;;
54454;SDS011;40364;52.270;10.546;2022-11-21T09:30:37;24.73;;;11.30;;
54454;SDS011;40364;52.270;10.546;2022-11-21T09:33:04;24.27;;;11.65;;
54454;SDS011;40364;52.270;10.546;2022-11-21T09:35:33;26.17;;;11.40;;
54454;SDS011;40364;52.270;10.546;2022-11-21T09:37:59;30.63;;;11.77;;
54454;SDS011;40364;52.270;10.546;2022-11-21T09:40:27;23.45;;;11.27;;
54454;SDS011;40364;52.270;10.546;2022-11-21T09:45:47;22.83;;;10.40;;
54454;SDS011;40364;52.270;10.546;2022-11-21T09:48:16;25.00;;;10.73;;
54454;SDS011;40364;52.270;10.546;2022-11-21T09:50:48;25.15;;;10.75;;
54454;SDS011;40364;52.270;10.546;2022-11-21T09:53:19;21.58;;;9.35;;
54454;SDS011;40364;52.270;10.546;2022-11-21T09:55:50;23.70;;;10.25;;
54454;SDS011;40364;52.270;10.546;2022-11-21T09:58:23;24.38;;;9.38;;
54454;SDS011;40364;52.270;10.546;2022-11-21T10:00:56;21.25;;;10.00;;
54454;SDS011;40364;52.270;10.546;2022-11-21T10:03:25;27.67;;;10.15;;
54454;SDS011;40364;52.270;10.546;2022-11-21T10:05:56;20.13;;;10.85;;
54454;SDS011;40364;52.270;10.546;2022-11-21T10:08:27;23.88;;;10.77;;
54454;SDS011;40364;52.270;10.546;2022-11-21T10:11:09;23.77;;;9.95;;
54454;SDS011;40364;52.270;10.546;2022-11-21T10:13:46;24.02;;;9.65;;
54454;SDS011;40364;52.270;10.546;2022-11-21T10:16:25;17.15;;;8.10;;
54454;SDS011;40364;52.270;10.546;2022-11-21T10:19:04;20.75;;;9.07;;
54454;SDS011;40364;52.270;10.546;2022-11-21T10:24:53;17.98;;;7.68;;
54454;SDS011;40364;52.270;10.546;2022-11-21T10:27:25;15.23;;;8.32;;
54454;SDS011;40364;52.270;10.546;2022-11-21T10:29:58;15.73;;;7.83;;
54454;SDS011;40364;52.270;10.546;2022-11-21T10:32:30;17.88;;;8.20;;
54454;SDS011;40364;52.270;10.546;2022-11-21T10:35:03;13.85;;;6.60;;
54454;SDS011;40364;52.270;10.546;2022-11-21T10:37:41;19.80;;;7.80;;
54454;SDS011;40364;52.270;10.546;2022-11-21T10:42:59;21.05;;;9.35;;
54454;SDS011;40364;52.270;10.546;2022-11-21T10:45:50;19.98;;;9.88;;
54454;SDS011;40364;52.270;10.546;2022-11-21T10:48:19;27.88;;;10.30;;
54454;SDS011;40364;52.270;10.546;2022-11-21T10:50:49;21.10;;;9.48;;
54454;SDS011;40364;52.270;10.546;2022-11-21T10:53:28;22.88;;;10.07;;
54454;SDS011;40364;52.270;10.546;2022-11-21T10:56:14;19.70;;;9.65;;
54454;SDS011;40364;52.270;10.546;2022-11-21T10:58:52;22.27;;;9.50;;
54454;SDS011;40364;52.270;10.546;2022-11-21T11:01:38;19.45;;;7.40;;
54454;SDS011;40364;52.270;10.546;2022-11-21T11:04:18;22.02;;;8.52;;
54454;SDS011;40364;52.270;10.546;2022-11-21T11:06:46;21.38;;;9.02;;
54454;SDS011;40364;52.270;10.546;2022-11-21T11:09:23;14.85;;;7.28;;
54454;SDS011;40364;52.270;10.546;2022-11-21T11:11:52;17.38;;;8.75;;
54454;SDS011;40364;52.270;10.546;2022-11-21T11:14:27;16.00;;;8.02;;
54454;SDS011;40364;52.270;10.546;2022-11-21T11:16:57;16.00;;;7.13;;
54454;SDS011;40364;52.270;10.546;2022-11-21T11:19:26;18.30;;;7.93;;
54454;SDS011;40364;52.270;10.546;2022-11-21T11:21:54;15.45;;;8.50;;
54454;SDS011;40364;52.270;10.546;2022-11-21T11:24:22;16.05;;;8.23;;
54454;SDS011;40364;52.270;10.546;2022-11-21T11:26:52;11.95;;;6.93;;
54454;SDS011;40364;52.270;10.546;2022-11-21T11:29:24;12.85;;;7.22;;
54454;SDS011;40364;52.270;10.546;2022-11-21T11:31:54;15.18;;;6.88;;
54454;SDS011;40364;52.270;10.546;2022-11-21T11:34:26;17.98;;;6.65;;
54454;SDS011;40364;52.270;10.546;2022-11-21T11:37:06;8.95;;;5.35;;
54454;SDS011;40364;52.270;10.546;2022-11-21T11:39:38;12.88;;;5.85;;
54454;SDS011;40364;52.270;10.546;2022-11-21T11:42:12;11.55;;;6.57;;
54454;SDS011;40364;52.270;10.546;2022-11-21T11:45:15;16.27;;;6.00;;
54454;SDS011;40364;52.270;10.546;2022-11-21T11:48:12;13.10;;;6.28;;
54454;SDS011;40364;52.270;10.546;2022-11-21T11:50:45;10.07;;;5.88;;
54454;SDS011;40364;52.270;10.546;2022-11-21T11:53:14;11.90;;;6.35;;
54454;SDS011;40364;52.270;10.546;2022-11-21T11:55:45;15.20;;;6.75;;
54454;SDS011;40364;52.270;10.546;2022-11-21T11:58:18;14.00;;;5.82;;
54454;SDS011;40364;52.270;10.546;2022-11-21T12:00:50;10.25;;;6.07;;
54454;SDS011;40364;52.270;10.546;2022-11-21T12:03:23;11.63;;;5.55;;
54454;SDS011;40364;52.270;10.546;2022-11-21T12:06:02;10.35;;;6.25;;
54454;SDS011;40364;52.270;10.546;2022-11-21T12:08:40;15.43;;;6.40;;
54454;SDS011;40364;52.270;10.546;2022-11-21T12:11:14;10.57;;;6.25;;
54454;SDS011;40364;52.270;10.546;2022-11-21T12:14:09;12.25;;;6.38;;
54454;SDS011;40364;52.270;10.546;2022-11-21T12:17:03;11.80;;;6.72;;
54454;SDS011;40364;52.270;10.546;2022-11-21T12:19:33;11.18;;;6.20;;
54454;SDS011;40364;52.270;10.546;2022-11-21T12:22:03;10.80;;;5.93;;
54454;SDS011;40364;52.270;10.546;2022-11-21T12:24:32;10.43;;;5.85;;
54454;SDS011;40364;52.270;10.546;2022-11-21T12:27:01;10.05;;;5.80;;
54454;SDS011;40364;52.270;10.546;2022-11-21T12:29:39;8.85;;;5.40;;
54454;SDS011;40364;52.270;10.546;2022-11-21T12:32:22;9.65;;;5.28;;
54454;SDS011;40364;52.270;10.546;2022-11-21T12:35:03;10.30;;;5.43;;
54454;SDS011;40364;52.270;10.546;2022-11-21T12:37:49;10.25;;;4.80;;
54454;SDS011;40364;52.270;10.546;2022-11-21T12:40:39;9.13;;;4.97;;
54454;SDS011;40364;52.270;10.546;2022-11-21T12:43:17;7.07;;;4.03;;
54454;SDS011;40364;52.270;10.546;2022-11-21T12:45:49;9.95;;;4.97;;
54454;SDS011;40364;52.270;10.546;2022-11-21T12:48:24;11.95;;;4.68;;
54454;SDS011;40364;52.270;10.546;2022-11-21T12:51:27;8.35;;;4.28;;
54454;SDS011;40364;52.270;10.546;2022-11-21T12:54:30;11.63;;;5.10;;
54454;SDS011;40364;52.270;10.546;2022-11-21T12:57:09;11.52;;;4.57;;
54454;SDS011;40364;52.270;10.546;2022-11-21T12:59:40;10.43;;;5.03;;
54454;SDS011;40364;52.270;10.546;2022-11-21T13:02:27;10.38;;;5.32;;
54454;SDS011;40364;52.270;10.546;2022-11-21T13:04:59;9.23;;;4.60;;
54454;SDS011;40364;52.270;10.546;2022-11-21T13:07:28;11.80;;;5.43;;
54454;SDS011;40364;52.270;10.546;2022-11-21T13:09:59;11.57;;;5.53;;
54454;SDS011;40364;52.270;10.546;2022-11-21T13:12:30;10.80;;;4.88;;
54454;SDS011;40364;52.270;10.546;2022-11-21T13:15:11;8.55;;;4.85;;
54454;SDS011;40364;52.270;10.546;2022-11-21T13:17:48;10.80;;;5.43;;
54454;SDS011;40364;52.270;10.546;2022-11-21T13:20:23;9.93;;;5.00;;
54454;SDS011;40364;52.270;10.546;2022-11-21T13:22:54;10.85;;;5.53;;
54454;SDS011;40364;52.270;10.546;2022-11-21T13:25:36;11.85;;;6.32;;
54454;SDS011;40364;52.270;10.546;2022-11-21T13:28:28;11.02;;;5.78;;
54454;SDS011;40364;52.270;10.546;2022-11-21T13:30:57;11.88;;;5.93;;
54454;SDS011;40364;52.270;10.546;2022-11-21T13:33:45;13.95;;;6.07;;
54454;SDS011;40364;52.270;10.546;2022-11-21T13:36:32;12.45;;;6.53;;
54454;SDS011;40364;52.270;10.546;2022-11-21T13:39:24;10.45;;;6.18;;
54454;SDS011;40364;52.270;10.546;2022-11-21T13:41:58;14.23;;;7.22;;
54454;SDS011;40364;52.270;10.546;2022-11-21T13:48:09;15.65;;;7.35;;
54454;SDS011;40364;52.270;10.546;2022-11-21T13:53:56;14.55;;;7.63;;
54454;SDS011;40364;52.270;10.546;2022-11-21T13:56:40;19.05;;;7.40;;
54454;SDS011;40364;52.270;10.546;2022-11-21T13:59:24;15.32;;;6.65;;
54454;SDS011;40364;52.270;10.546;2022-11-21T14:05:25;16.53;;;6.43;;
54454;SDS011;40364;52.270;10.546;2022-11-21T14:08:18;19.85;;;6.47;;
54454;SDS011;40364;52.270;10.546;2022-11-21T14:10:46;11.07;;;5.32;;
54454;SDS011;40364;52.270;10.546;2022-11-21T14:13:16;11.13;;;5.40;;
54454;SDS011;40364;52.270;10.546;2022-11-21T14:15:50;16.45;;;6.43;;
54454;SDS011;40364;52.270;10.546;2022-11-21T14:18:25;11.40;;;5.88;;
54454;SDS011;40364;52.270;10.546;2022-11-21T14:20:52;15.43;;;5.70;;
54454;SDS011;40364;52.270;10.546;2022-11-21T14:23:22;12.80;;;6.60;;
54454;SDS011;40364;52.270;10.546;2022-11-21T14:25:52;10.93;;;5.43;;
54454;SDS011;40364;52.270;10.546;2022-11-21T14:28:23;19.67;;;6.80;;
54454;SDS011;40364;52.270;10.546;2022-11-21T14:30:57;13.70;;;5.85;;
54454;SDS011;40364;52.270;10.546;2022-11-21T14:33:27;11.50;;;5.85;;
54454;SDS011;40364;52.270;10.546;2022-11-21T14:35:57;18.63;;;5.40;;
54454;SDS011;40364;52.270;10.546;2022-11-21T14:38:26;14.68;;;6.55;;
54454;SDS011;40364;52.270;10.546;2022-11-21T14:44:13;12.68;;;5.85;;
54454;SDS011;40364;52.270;10.546;2022-11-21T14:46:43;14.32;;;6.20;;
54454;SDS011;40364;52.270;10.546;2022-11-21T14:52:17;15.45;;;5.97;;
54454;SDS011;40364;52.270;10.546;2022-11-21T14:54:47;12.40;;;5.82;;
54454;SDS011;40364;52.270;10.546;2022-11-21T14:57:18;12.93;;;6.28;;
54454;SDS011;40364;52.270;10.546;2022-11-21T14:59:49;12.05;;;5.90;;